createdAt,value
2022-12-19T00:02:12.300Z,8.63
2022-12-19T00:05:14.073Z,8.17
2022-12-19T00:08:19.379Z,8.40
2022-12-19T00:11:23.766Z,8.43
2022-12-19T00:14:25.507Z,8.57
2022-12-19T00:17:27.143Z,8.60
2022-12-19T00:20:28.779Z,8.57
2022-12-19T00:23:32.290Z,8.87
2022-12-19T00:26:36.960Z,8.80
2022-12-19T00:29:38.629Z,8.10
2022-12-19T00:32:40.293Z,8.83
2022-12-19T00:35:41.971Z,8.40
2022-12-19T00:38:44.402Z,8.23
2022-12-19T00:41:46.253Z,8.33
2022-12-19T00:44:47.966Z,8.27
2022-12-19T00:47:49.616Z,8.83
2022-12-19T00:51:00.250Z,8.43
2022-12-19T00:54:05.305Z,8.13
2022-12-19T00:57:07.243Z,8.30
2022-12-19T01:00:26.519Z,8.90
2022-12-19T01:03:28.186Z,8.17
2022-12-19T01:06:29.870Z,8.07
2022-12-19T01:09:33.355Z,8.07
2022-12-19T01:12:47.403Z,8.80
2022-12-19T01:15:49.314Z,8.37
2022-12-19T01:18:50.947Z,9.00
2022-12-19T01:21:52.695Z,8.60
2022-12-19T01:24:54.969Z,8.30
2022-12-19T01:27:57.260Z,8.33
2022-12-19T01:30:58.945Z,7.87
2022-12-19T01:34:01.403Z,8.30
2022-12-19T01:37:03.213Z,7.23
2022-12-19T01:40:05.415Z,8.70
2022-12-19T01:43:13.866Z,9.00
2022-12-19T01:46:15.681Z,8.87
2022-12-19T01:49:25.616Z,9.47
2022-12-19T01:52:27.303Z,8.17
2022-12-19T01:55:29.114Z,8.20
2022-12-19T01:58:30.961Z,7.93
2022-12-19T02:01:32.789Z,8.27
2022-12-19T02:04:34.959Z,9.17
2022-12-19T02:07:38.158Z,8.30
2022-12-19T02:10:39.903Z,7.67
2022-12-19T02:13:42.727Z,6.93
2022-12-19T02:17:04.939Z,9.00
2022-12-19T02:20:37.320Z,8.77
2022-12-19T02:24:00.181Z,9.63
2022-12-19T02:27:07.664Z,8.20
2022-12-19T02:30:18.815Z,8.70
2022-12-19T02:33:35.531Z,8.90
2022-12-19T02:36:43.596Z,8.40
2022-12-19T02:39:55.185Z,10.40
2022-12-19T02:43:03.574Z,8.40
2022-12-19T02:46:07.488Z,9.37
2022-12-19T02:49:09.580Z,9.50
2022-12-19T02:52:20.114Z,9.13
2022-12-19T02:55:24.347Z,10.37
2022-12-19T02:58:40.680Z,10.37
2022-12-19T03:01:53.097Z,9.37
2022-12-19T03:05:05.687Z,8.80
2022-12-19T03:08:26.420Z,9.60
2022-12-19T03:11:34.471Z,10.33
2022-12-19T03:14:37.214Z,9.43
2022-12-19T03:17:39.721Z,9.57
2022-12-19T03:21:06.770Z,9.90
2022-12-19T03:24:11.582Z,8.53
2022-12-19T03:27:25.784Z,10.20
2022-12-19T03:30:29.209Z,9.10
2022-12-19T03:33:33.937Z,10.33
2022-12-19T03:36:42.600Z,10.07
2022-12-19T03:39:49.653Z,9.37
2022-12-19T03:43:09.565Z,8.73
2022-12-19T03:46:21.575Z,9.87
2022-12-19T03:49:23.353Z,9.33
2022-12-19T03:52:35.771Z,9.37
2022-12-19T03:55:42.914Z,9.90
2022-12-19T03:58:51.448Z,9.03
2022-12-19T04:01:54.707Z,9.70
2022-12-19T04:05:01.368Z,9.50
2022-12-19T04:08:06.371Z,10.47
2022-12-19T04:11:15.182Z,10.23
2022-12-19T04:14:23.520Z,9.67
2022-12-19T04:17:32.507Z,9.93
2022-12-19T04:20:38.483Z,10.50
2022-12-19T04:23:50.520Z,10.47
2022-12-19T04:26:54.502Z,10.97
2022-12-19T04:29:59.271Z,11.17
2022-12-19T04:33:01.041Z,9.60
2022-12-19T04:36:02.932Z,9.17
2022-12-19T04:39:04.708Z,10.23
2022-12-19T04:42:06.459Z,10.27
2022-12-19T04:45:10.984Z,9.33
2022-12-19T04:48:12.983Z,10.13
2022-12-19T04:51:16.047Z,9.40
2022-12-19T04:54:17.876Z,10.20
2022-12-19T04:57:19.544Z,10.20
2022-12-19T05:00:21.357Z,10.67
2022-12-19T05:03:23.596Z,9.90
2022-12-19T05:06:25.368Z,9.97
2022-12-19T05:09:27.118Z,9.40
2022-12-19T05:12:29.437Z,9.70
2022-12-19T05:15:31.797Z,10.33
2022-12-19T05:18:33.645Z,10.90
2022-12-19T05:21:35.564Z,10.57
2022-12-19T05:24:37.218Z,10.33
2022-12-19T05:27:38.975Z,10.47
2022-12-19T05:30:41.228Z,9.97
2022-12-19T05:33:43.962Z,11.30
2022-12-19T05:36:46.638Z,9.67
2022-12-19T05:39:48.341Z,10.97
2022-12-19T05:42:50.035Z,11.33
2022-12-19T05:45:51.880Z,11.10
2022-12-19T05:48:53.623Z,11.60
2022-12-19T05:51:55.280Z,10.80
2022-12-19T05:54:57.229Z,11.00
2022-12-19T05:57:59.048Z,11.63
2022-12-19T06:01:12.892Z,11.00
2022-12-19T06:04:14.655Z,10.47
2022-12-19T06:07:20.744Z,10.77
2022-12-19T06:10:22.965Z,11.47
2022-12-19T06:13:25.274Z,11.67
2022-12-19T06:16:27.033Z,11.27
2022-12-19T06:19:30.081Z,11.07
2022-12-19T06:22:31.872Z,11.97
2022-12-19T06:25:34.439Z,11.23
2022-12-19T06:28:36.218Z,13.13
2022-12-19T06:31:38.002Z,12.70
2022-12-19T06:35:03.268Z,11.70
2022-12-19T06:38:01.467Z,12.27
2022-12-19T06:41:23.118Z,12.67
2022-12-19T06:44:28.626Z,12.90
2022-12-19T06:47:30.267Z,11.90
2022-12-19T06:50:32.045Z,12.73
2022-12-19T06:53:33.816Z,11.70
2022-12-19T06:56:37.119Z,12.00
2022-12-19T06:59:38.779Z,11.67
2022-12-19T07:02:44.997Z,13.77
2022-12-19T07:05:47.209Z,12.13
2022-12-19T07:08:48.988Z,12.13
2022-12-19T07:11:50.665Z,13.27
2022-12-19T07:14:53.735Z,11.47
2022-12-19T07:17:55.700Z,12.60
2022-12-19T07:20:57.523Z,11.97
2022-12-19T07:24:00.096Z,12.20
2022-12-19T07:27:02.169Z,14.13
2022-12-19T07:30:06.079Z,12.90
2022-12-19T07:33:10.932Z,14.30
2022-12-19T07:36:13.467Z,12.73
2022-12-19T07:39:15.220Z,14.53
2022-12-19T07:42:17.019Z,14.80
2022-12-19T07:45:18.757Z,14.57
2022-12-19T07:48:22.745Z,14.60
2022-12-19T07:51:24.452Z,15.20
2022-12-19T07:54:26.229Z,15.93
2022-12-19T07:57:27.994Z,16.43
2022-12-19T08:00:31.607Z,16.50
2022-12-19T08:03:33.678Z,15.90
2022-12-19T08:06:40.785Z,15.97
2022-12-19T08:09:43.397Z,16.73
2022-12-19T08:12:46.404Z,15.10
2022-12-19T08:15:48.098Z,15.47
2022-12-19T08:18:49.832Z,17.07
2022-12-19T08:21:51.748Z,16.47
2022-12-19T08:24:53.576Z,18.37
2022-12-19T08:27:55.307Z,17.40
2022-12-19T08:30:57.098Z,17.10
2022-12-19T08:33:59.071Z,18.00
2022-12-19T08:37:00.995Z,17.37
2022-12-19T08:40:03.255Z,16.63
2022-12-19T08:43:04.951Z,19.17
2022-12-19T08:46:07.379Z,17.93
2022-12-19T08:49:09.414Z,18.77
2022-12-19T08:52:11.119Z,19.33
2022-12-19T08:55:12.843Z,19.50
2022-12-19T08:58:14.533Z,17.43
2022-12-19T09:01:19.350Z,18.17
2022-12-19T09:06:00.589Z,19.30
2022-12-19T09:07:43.269Z,17.40
2022-12-19T09:10:45.352Z,17.57
2022-12-19T09:13:48.251Z,19.13
2022-12-19T09:16:50.273Z,18.70
2022-12-19T09:19:52.072Z,18.13
2022-12-19T09:22:53.842Z,17.23
2022-12-19T09:25:57.214Z,19.43
2022-12-19T09:28:59.493Z,19.37
2022-12-19T09:32:01.277Z,19.20
2022-12-19T09:35:03.043Z,18.73
2022-12-19T09:38:05.818Z,19.20
2022-12-19T09:41:26.337Z,18.77
2022-12-19T09:45:10.455Z,18.87
2022-12-19T09:48:24.566Z,17.30
2022-12-19T09:51:44.045Z,17.53
2022-12-19T09:55:01.139Z,18.03
2022-12-19T09:58:10.683Z,18.07
2022-12-19T10:01:28.425Z,16.87
2022-12-19T10:04:34.419Z,17.90
2022-12-19T10:08:05.117Z,17.60
2022-12-19T10:12:39.023Z,18.47
2022-12-19T10:14:57.966Z,18.43
2022-12-19T10:18:15.370Z,17.53
2022-12-19T10:22:15.760Z,18.37
2022-12-19T10:25:29.215Z,18.33
2022-12-19T10:28:56.582Z,17.57
2022-12-19T10:32:32.213Z,16.13
2022-12-19T10:35:41.317Z,16.77
2022-12-19T10:39:03.904Z,16.63
2022-12-19T10:42:19.791Z,17.73
2022-12-19T10:45:23.559Z,17.67
2022-12-19T10:48:32.633Z,18.27
2022-12-19T10:51:37.067Z,17.27
2022-12-19T10:54:39.669Z,16.93
2022-12-19T10:57:41.684Z,17.67
2022-12-19T11:01:11.601Z,16.47
2022-12-19T11:04:32.873Z,17.07
2022-12-19T11:07:34.668Z,17.00
2022-12-19T11:12:18.159Z,16.10
2022-12-19T11:20:08.568Z,15.63
2022-12-19T11:22:59.569Z,15.63
2022-12-19T11:29:36.907Z,16.20
2022-12-19T11:29:41.753Z,15.23
2022-12-19T11:30:58.918Z,17.10
2022-12-19T11:35:05.773Z,15.23
2022-12-19T11:38:13.938Z,15.60
2022-12-19T11:41:26.359Z,14.53
2022-12-19T11:44:49.483Z,15.33
2022-12-19T11:48:13.995Z,15.07
2022-12-19T11:51:48.300Z,14.67
2022-12-19T11:55:00.600Z,16.40
2022-12-19T11:58:02.271Z,16.93
2022-12-19T12:01:10.039Z,16.23
2022-12-19T12:04:20.725Z,15.20
2022-12-19T12:07:49.750Z,15.53
2022-12-19T12:17:20.343Z,15.43
2022-12-19T12:25:39.416Z,16.43
2022-12-19T12:31:10.852Z,15.13
2022-12-19T12:31:23.448Z,15.13
2022-12-19T12:31:45.829Z,15.07
2022-12-19T12:31:59.002Z,16.50
2022-12-19T12:35:51.515Z,15.80
2022-12-19T12:40:51.618Z,15.53
2022-12-19T12:44:08.938Z,16.03
2022-12-19T12:47:30.146Z,16.03
2022-12-19T12:50:48.558Z,16.47
2022-12-19T12:54:01.582Z,15.33
2022-12-19T12:57:03.743Z,15.30
2022-12-19T13:00:18.089Z,16.37
2022-12-19T13:03:23.937Z,16.40
2022-12-19T13:06:31.704Z,17.13
2022-12-19T13:09:36.873Z,16.30
2022-12-19T13:13:15.828Z,15.20
2022-12-19T13:16:43.596Z,15.97
2022-12-19T13:19:57.050Z,14.97
2022-12-19T13:23:03.263Z,15.13
2022-12-19T13:26:19.970Z,15.20
2022-12-19T13:29:35.040Z,16.60
2022-12-19T13:32:39.775Z,16.10
2022-12-19T13:38:40.479Z,15.87
2022-12-19T13:39:59.970Z,15.67
2022-12-19T13:42:46.039Z,15.10
2022-12-19T13:45:54.039Z,15.77
2022-12-19T13:49:16.520Z,15.80
2022-12-19T13:52:19.264Z,16.23
2022-12-19T13:55:33.237Z,14.80
2022-12-19T13:58:55.061Z,15.70
2022-12-19T14:02:15.341Z,15.13
2022-12-19T14:06:14.751Z,15.93
2022-12-19T14:09:58.666Z,14.90
2022-12-19T14:12:51.987Z,16.07
2022-12-19T14:16:18.335Z,14.63
2022-12-19T14:19:28.865Z,15.03
2022-12-19T14:22:30.569Z,15.33
2022-12-19T14:28:20.804Z,15.10
2022-12-19T14:29:28.573Z,15.40
2022-12-19T14:33:44.324Z,15.57
2022-12-19T14:36:26.222Z,14.27
2022-12-19T14:39:36.258Z,15.07
2022-12-19T14:43:56.859Z,14.23
2022-12-19T14:54:00.452Z,14.63
2022-12-19T14:54:12.042Z,14.80
2022-12-19T14:54:23.273Z,14.17
2022-12-19T14:57:02.147Z,13.87
2022-12-19T15:01:09.831Z,15.03
2022-12-19T15:04:51.140Z,14.97
2022-12-19T15:07:29.486Z,17.43
2022-12-19T15:11:05.552Z,15.70
2022-12-19T15:14:55.133Z,15.93
2022-12-19T15:17:29.375Z,14.70
2022-12-19T15:20:31.123Z,14.77
2022-12-19T15:23:40.651Z,14.60
2022-12-19T15:26:54.729Z,15.50
2022-12-19T15:29:58.034Z,14.37
2022-12-19T15:32:59.853Z,14.47
2022-12-19T15:36:01.632Z,14.33
2022-12-19T15:39:03.917Z,14.00
2022-12-19T15:42:11.274Z,14.93
2022-12-19T15:45:16.045Z,14.00
2022-12-19T15:48:18.448Z,15.07
2022-12-19T15:51:20.208Z,16.10
2022-12-19T15:54:48.033Z,14.63
2022-12-19T15:57:52.621Z,13.87
2022-12-19T16:01:03.690Z,12.70
2022-12-19T16:04:13.155Z,14.40
2022-12-19T16:07:22.837Z,15.23
2022-12-19T16:10:25.700Z,14.10
2022-12-19T16:13:30.619Z,15.50
2022-12-19T16:16:32.406Z,13.93
2022-12-19T16:19:34.227Z,15.77
2022-12-19T16:22:35.949Z,17.00
2022-12-19T16:25:41.824Z,15.50
2022-12-19T16:28:43.614Z,14.90
2022-12-19T16:31:45.393Z,14.20
2022-12-19T16:34:47.253Z,13.97
2022-12-19T16:37:50.737Z,15.10
2022-12-19T16:40:52.905Z,14.87
2022-12-19T16:43:54.676Z,14.67
2022-12-19T16:47:13.851Z,14.00
2022-12-19T16:50:30.792Z,15.27
2022-12-19T16:53:35.713Z,14.23
2022-12-19T16:56:43.370Z,14.70
2022-12-19T16:59:45.080Z,14.47
2022-12-19T17:02:59.064Z,14.77
2022-12-19T17:06:01.245Z,14.60
2022-12-19T17:09:02.933Z,14.20
2022-12-19T17:12:04.977Z,14.80
2022-12-19T17:15:17.191Z,14.83
2022-12-19T17:18:38.845Z,14.07
2022-12-19T17:21:40.513Z,14.67
2022-12-19T17:24:46.574Z,13.70
2022-12-19T17:27:48.997Z,13.70
2022-12-19T17:30:53.617Z,13.53
2022-12-19T17:33:57.900Z,15.20
2022-12-19T17:37:01.638Z,15.23
2022-12-19T17:40:03.489Z,13.07
2022-12-19T17:43:08.293Z,13.87
2022-12-19T17:46:22.068Z,13.57
2022-12-19T17:49:31.727Z,13.33
2022-12-19T17:52:36.182Z,12.73
2022-12-19T17:55:38.100Z,13.40
2022-12-19T17:58:39.805Z,13.80
2022-12-19T18:01:42.722Z,13.87
2022-12-19T18:04:47.197Z,14.60
2022-12-19T18:07:50.004Z,14.53
2022-12-19T18:10:52.592Z,14.80
2022-12-19T18:13:55.271Z,15.47
2022-12-19T18:16:57.337Z,14.80
2022-12-19T18:20:00.203Z,14.27
2022-12-19T18:23:02.140Z,14.47
2022-12-19T18:26:03.948Z,14.07
2022-12-19T18:29:08.292Z,14.27
2022-12-19T18:32:19.082Z,13.93
2022-12-19T18:36:05.846Z,14.03
2022-12-19T18:39:45.815Z,14.00
2022-12-19T18:42:48.395Z,13.70
2022-12-19T18:45:56.522Z,13.20
2022-12-19T18:48:58.271Z,13.10
2022-12-19T18:52:01.030Z,14.10
2022-12-19T18:55:02.731Z,13.73
2022-12-19T18:58:07.087Z,15.73
2022-12-19T19:01:17.410Z,13.80
2022-12-19T19:04:19.204Z,13.17
2022-12-19T19:07:21.382Z,13.97
2022-12-19T19:10:30.218Z,13.70
2022-12-19T19:13:35.061Z,14.30
2022-12-19T19:16:40.100Z,13.87
2022-12-19T19:19:42.151Z,13.73
2022-12-19T19:22:44.767Z,15.23
2022-12-19T19:25:46.575Z,14.77
2022-12-19T19:28:52.214Z,15.17
2022-12-19T19:32:00.469Z,15.47
2022-12-19T19:35:06.721Z,15.33
2022-12-19T19:38:11.712Z,15.13
2022-12-19T19:41:18.959Z,15.17
2022-12-19T19:44:20.695Z,14.77
2022-12-19T19:47:29.221Z,13.87
2022-12-19T19:50:31.712Z,15.53
2022-12-19T19:53:34.018Z,14.53
2022-12-19T19:56:35.888Z,15.37
2022-12-19T19:59:37.752Z,14.20
2022-12-19T20:02:39.925Z,14.83
2022-12-19T20:05:41.861Z,14.97
2022-12-19T20:08:43.599Z,14.73
2022-12-19T20:11:45.614Z,14.17
2022-12-19T20:14:47.525Z,14.73
2022-12-19T20:17:51.473Z,16.27
2022-12-19T20:20:53.228Z,15.07
2022-12-19T20:23:54.980Z,14.73
2022-12-19T20:26:57.665Z,15.53
2022-12-19T20:29:59.433Z,16.17
2022-12-19T20:33:01.203Z,14.27
2022-12-19T20:36:11.825Z,15.20
2022-12-19T20:39:21.955Z,15.53
2022-12-19T20:42:23.836Z,15.87
2022-12-19T20:45:25.717Z,15.20
2022-12-19T20:48:30.533Z,16.23
2022-12-19T20:51:32.299Z,16.00
2022-12-19T20:54:33.976Z,15.83
2022-12-19T20:57:54.394Z,15.20
2022-12-19T21:00:57.426Z,14.30
2022-12-19T21:03:59.344Z,15.10
2022-12-19T21:07:01.152Z,16.07
2022-12-19T21:10:03.037Z,15.13
2022-12-19T21:13:04.813Z,15.43
2022-12-19T21:16:08.901Z,15.33
2022-12-19T21:19:10.856Z,15.00
2022-12-19T21:22:12.670Z,14.90
2022-12-19T21:25:14.513Z,15.87
2022-12-19T21:28:16.272Z,14.93
2022-12-19T21:31:19.381Z,15.47
2022-12-19T21:34:21.165Z,15.03
2022-12-19T21:37:24.203Z,14.47
2022-12-19T21:40:26.082Z,14.53
2022-12-19T21:43:27.775Z,14.47
2022-12-19T21:46:33.226Z,15.33
2022-12-19T21:49:35.048Z,15.67
2022-12-19T21:52:37.586Z,15.43
2022-12-19T21:55:39.899Z,16.40
2022-12-19T21:58:41.595Z,15.23
2022-12-19T22:01:44.632Z,15.00
2022-12-19T22:04:48.011Z,14.30
2022-12-19T22:07:53.363Z,14.97
2022-12-19T22:10:55.122Z,15.13
2022-12-19T22:14:00.227Z,14.13
2022-12-19T22:17:02.047Z,13.90
2022-12-19T22:20:09.395Z,14.37
2022-12-19T22:23:13.542Z,14.20
2022-12-19T22:26:21.610Z,14.83
2022-12-19T22:29:23.297Z,12.73
2022-12-19T22:32:24.970Z,14.73
2022-12-19T22:35:26.703Z,14.33
2022-12-19T22:38:28.432Z,13.33
2022-12-19T22:41:31.995Z,13.20
2022-12-19T22:44:33.677Z,13.80
2022-12-19T22:47:35.849Z,14.20
2022-12-19T22:50:37.682Z,14.90
2022-12-19T22:53:40.215Z,14.13
2022-12-19T22:56:45.285Z,14.43
2022-12-19T22:59:49.962Z,13.23
2022-12-19T23:02:51.828Z,13.93
2022-12-19T23:05:53.696Z,14.07
2022-12-19T23:08:55.519Z,12.50
2022-12-19T23:12:33.177Z,13.70
2022-12-19T23:15:35.359Z,12.83
2022-12-19T23:18:37.430Z,13.03
2022-12-19T23:21:39.172Z,13.53
2022-12-19T23:24:40.995Z,14.03
2022-12-19T23:27:42.789Z,13.37
2022-12-19T23:30:47.681Z,13.33
2022-12-19T23:33:49.856Z,13.70
2022-12-19T23:40:13.448Z,13.50
2022-12-19T23:43:15.700Z,14.03
2022-12-19T23:46:21.295Z,13.13
2022-12-19T23:49:23.021Z,13.10
2022-12-19T23:52:24.785Z,12.13
2022-12-19T23:55:27.106Z,12.43
2022-12-19T23:58:28.777Z,13.57
